createdAt,value
2022-12-12T00:00:22.268Z,33.93
2022-12-12T00:02:51.287Z,33.80
2022-12-12T00:05:19.450Z,32.73
2022-12-12T00:07:47.824Z,33.60
2022-12-12T00:10:15.516Z,36.83
2022-12-12T00:12:43.305Z,34.83
2022-12-12T00:15:12.714Z,34.17
2022-12-12T00:17:40.750Z,31.70
2022-12-12T00:20:08.526Z,31.77
2022-12-12T00:22:36.353Z,35.00
2022-12-12T00:25:04.320Z,36.33
2022-12-12T00:27:32.112Z,33.73
2022-12-12T00:30:00.030Z,36.10
2022-12-12T00:32:30.361Z,34.37
2022-12-12T00:34:58.940Z,35.43
2022-12-12T00:37:26.553Z,34.30
2022-12-12T00:39:54.870Z,34.67
2022-12-12T00:42:22.446Z,34.97
2022-12-12T00:44:50.417Z,35.20
2022-12-12T00:47:18.310Z,36.03
2022-12-12T00:49:47.393Z,34.50
2022-12-12T00:52:15.017Z,38.30
2022-12-12T00:54:43.175Z,35.07
2022-12-12T00:57:10.992Z,38.03
2022-12-12T00:59:38.760Z,38.17
2022-12-12T01:02:06.682Z,38.70
2022-12-12T01:04:34.738Z,37.43
2022-12-12T01:07:03.690Z,40.73
2022-12-12T01:09:31.346Z,35.67
2022-12-12T01:11:58.969Z,37.83
2022-12-12T01:14:26.778Z,36.90
2022-12-12T01:16:54.444Z,37.13
2022-12-12T01:19:22.066Z,33.73
2022-12-12T01:21:49.746Z,38.47
2022-12-12T01:24:20.242Z,39.03
2022-12-12T01:26:48.044Z,39.70
2022-12-12T01:29:16.220Z,38.90
2022-12-12T01:31:43.965Z,41.53
2022-12-12T01:34:11.993Z,38.87
2022-12-12T01:36:39.884Z,39.50
2022-12-12T01:39:07.910Z,39.63
2022-12-12T01:41:36.985Z,44.77
2022-12-12T01:44:06.265Z,44.80
2022-12-12T01:46:36.204Z,43.50
2022-12-12T01:49:06.856Z,45.10
2022-12-12T01:51:34.968Z,44.60
2022-12-12T01:54:05.185Z,41.77
2022-12-12T01:56:33.392Z,44.43
2022-12-12T01:59:04.945Z,43.13
2022-12-12T02:01:33.077Z,43.67
2022-12-12T02:04:01.630Z,42.70
2022-12-12T02:06:29.943Z,40.17
2022-12-12T02:08:59.262Z,44.47
2022-12-12T02:11:27.801Z,41.43
2022-12-12T02:13:55.469Z,38.67
2022-12-12T02:16:30.247Z,36.37
2022-12-12T02:18:59.911Z,37.30
2022-12-12T02:21:32.375Z,35.37
2022-12-12T02:24:11.156Z,34.20
2022-12-12T02:26:57.908Z,38.43
2022-12-12T02:29:43.438Z,39.97
2022-12-12T02:32:20.406Z,39.30
2022-12-12T02:34:50.708Z,40.00
2022-12-12T02:37:22.382Z,45.10
2022-12-12T02:39:56.254Z,40.17
2022-12-12T02:42:26.764Z,43.60
2022-12-12T02:44:57.249Z,45.37
2022-12-12T02:47:30.011Z,44.53
2022-12-12T02:50:01.410Z,48.87
2022-12-12T02:52:29.715Z,43.30
2022-12-12T02:54:57.297Z,45.30
2022-12-12T02:57:26.163Z,48.93
2022-12-12T02:59:56.461Z,46.47
2022-12-12T03:02:40.242Z,46.33
2022-12-12T03:05:32.369Z,50.13
2022-12-12T03:08:04.345Z,49.80
2022-12-12T03:10:36.628Z,46.00
2022-12-12T03:13:10.169Z,49.53
2022-12-12T03:15:43.110Z,45.97
2022-12-12T03:18:17.737Z,54.80
2022-12-12T03:20:48.968Z,51.00
2022-12-12T03:23:18.341Z,52.10
2022-12-12T03:25:48.422Z,57.43
2022-12-12T03:31:03.982Z,58.63
2022-12-12T03:33:37.951Z,62.03
2022-12-12T03:36:08.481Z,60.63
2022-12-12T03:38:39.472Z,58.40
2022-12-12T03:41:09.814Z,56.33
2022-12-12T03:43:40.386Z,51.07
2022-12-12T03:46:10.375Z,56.00
2022-12-12T03:48:41.245Z,52.83
2022-12-12T03:51:13.395Z,51.60
2022-12-12T03:53:45.769Z,53.63
2022-12-12T03:56:16.095Z,54.40
2022-12-12T03:58:47.057Z,58.60
2022-12-12T04:01:16.075Z,56.50
2022-12-12T04:03:51.039Z,59.70
2022-12-12T04:06:28.145Z,51.70
2022-12-12T04:09:16.616Z,50.57
2022-12-12T04:12:08.762Z,52.93
2022-12-12T04:14:46.417Z,49.50
2022-12-12T04:17:15.854Z,52.87
2022-12-12T04:20:04.594Z,56.23
2022-12-12T04:22:55.264Z,47.90
2022-12-12T04:25:27.886Z,52.20
2022-12-12T04:27:59.686Z,54.90
2022-12-12T04:30:29.936Z,48.60
2022-12-12T04:32:59.225Z,57.00
2022-12-12T04:35:30.560Z,55.60
2022-12-12T04:37:59.057Z,55.67
2022-12-12T04:40:28.717Z,60.53
2022-12-12T04:42:59.160Z,55.13
2022-12-12T04:45:29.344Z,55.13
2022-12-12T04:47:57.651Z,53.73
2022-12-12T04:50:26.659Z,55.30
2022-12-12T04:52:56.690Z,48.37
2022-12-12T04:55:27.309Z,50.37
2022-12-12T04:57:56.994Z,48.63
2022-12-12T05:00:25.876Z,47.37
2022-12-12T05:02:57.667Z,44.70
2022-12-12T05:05:27.418Z,45.20
2022-12-12T05:07:58.988Z,46.97
2022-12-12T05:10:26.809Z,47.23
2022-12-12T05:12:57.901Z,44.13
2022-12-12T05:15:26.265Z,41.90
2022-12-12T05:17:57.335Z,38.57
2022-12-12T05:20:25.501Z,37.37
2022-12-12T05:22:53.447Z,34.70
2022-12-12T05:25:22.504Z,29.17
2022-12-12T05:27:50.188Z,27.37
2022-12-12T05:30:18.612Z,31.97
2022-12-12T05:32:46.256Z,28.93
2022-12-12T05:35:14.259Z,24.93
2022-12-12T05:37:45.519Z,23.97
2022-12-12T05:40:17.845Z,25.60
2022-12-12T05:42:47.190Z,21.90
2022-12-12T05:45:15.206Z,21.70
2022-12-12T05:47:43.040Z,19.67
2022-12-12T05:50:13.041Z,22.03
2022-12-12T05:52:40.636Z,18.57
2022-12-12T05:55:09.029Z,18.07
2022-12-12T05:57:36.690Z,17.90
2022-12-12T06:00:10.039Z,17.87
2022-12-12T06:02:37.855Z,18.30
2022-12-12T06:05:05.895Z,19.63
2022-12-12T06:07:33.662Z,15.53
2022-12-12T06:10:01.297Z,15.33
2022-12-12T06:12:29.004Z,16.80
2022-12-12T06:14:56.577Z,15.70
2022-12-12T06:17:51.464Z,13.40
2022-12-12T06:20:19.473Z,17.13
2022-12-12T06:22:53.372Z,13.40
2022-12-12T06:25:21.902Z,14.10
2022-12-12T06:27:49.498Z,12.70
2022-12-12T06:30:17.825Z,13.43
2022-12-12T06:32:45.960Z,13.83
2022-12-12T06:35:16.198Z,11.93
2022-12-12T06:37:44.270Z,12.63
2022-12-12T06:40:12.916Z,13.93
2022-12-12T06:42:44.777Z,11.60
2022-12-12T06:45:16.363Z,13.60
2022-12-12T06:47:44.130Z,13.00
2022-12-12T06:50:12.332Z,14.93
2022-12-12T06:52:41.706Z,14.43
2022-12-12T06:55:09.900Z,21.13
2022-12-12T06:57:37.568Z,16.30
2022-12-12T07:00:07.485Z,12.30
2022-12-12T07:02:35.814Z,14.20
2022-12-12T07:05:03.515Z,14.57
2022-12-12T07:07:32.324Z,17.60
2022-12-12T07:10:01.644Z,18.47
2022-12-12T07:12:29.254Z,14.87
2022-12-12T07:14:57.202Z,15.03
2022-12-12T07:17:24.776Z,16.13
2022-12-12T07:19:52.718Z,14.80
2022-12-12T07:22:20.664Z,13.83
2022-12-12T07:24:48.351Z,16.33
2022-12-12T07:27:21.656Z,15.03
2022-12-12T07:29:49.868Z,15.07
2022-12-12T07:32:17.515Z,16.40
2022-12-12T07:34:45.496Z,17.50
2022-12-12T07:37:13.322Z,14.63
2022-12-12T07:39:41.108Z,17.70
2022-12-12T07:42:08.854Z,16.00
2022-12-12T07:44:38.201Z,16.27
2022-12-12T07:47:06.361Z,14.60
2022-12-12T07:49:34.153Z,14.50
2022-12-12T07:52:01.814Z,13.87
2022-12-12T07:54:29.469Z,17.00
2022-12-12T07:56:57.131Z,15.10
2022-12-12T07:59:25.091Z,15.83
2022-12-12T08:01:54.172Z,16.67
2022-12-12T08:04:22.051Z,14.90
2022-12-12T08:06:54.006Z,16.00
2022-12-12T08:09:25.852Z,13.97
2022-12-12T08:11:55.786Z,14.57
2022-12-12T08:14:23.553Z,12.93
2022-12-12T08:16:51.228Z,15.77
2022-12-12T08:19:20.702Z,16.60
2022-12-12T08:21:48.456Z,13.90
2022-12-12T08:24:16.917Z,14.67
2022-12-12T08:26:44.957Z,13.77
2022-12-12T08:29:14.138Z,16.00
2022-12-12T08:31:43.217Z,14.13
2022-12-12T08:34:11.538Z,12.00
2022-12-12T08:36:40.564Z,12.20
2022-12-12T08:39:09.659Z,12.70
2022-12-12T08:41:39.593Z,14.30
2022-12-12T08:44:07.768Z,12.80
2022-12-12T08:46:36.708Z,13.03
2022-12-12T08:49:04.579Z,13.30
2022-12-12T08:51:32.317Z,12.77
2022-12-12T08:54:01.703Z,11.90
2022-12-12T08:56:29.543Z,11.07
2022-12-12T08:58:57.273Z,12.17
2022-12-12T09:01:26.022Z,9.90
2022-12-12T09:03:55.820Z,11.40
2022-12-12T09:06:23.873Z,17.60
2022-12-12T09:08:51.774Z,11.83
2022-12-12T09:11:21.044Z,11.80
2022-12-12T09:13:48.773Z,11.03
2022-12-12T09:16:16.834Z,10.47
2022-12-12T09:18:49.128Z,12.47
2022-12-12T09:21:17.726Z,12.30
2022-12-12T09:23:45.876Z,10.53
2022-12-12T09:26:14.346Z,12.27
2022-12-12T09:28:43.570Z,11.27
2022-12-12T09:31:12.426Z,9.20
2022-12-12T09:33:40.195Z,8.70
2022-12-12T09:36:08.896Z,12.50
2022-12-12T09:38:36.768Z,9.20
2022-12-12T09:41:11.161Z,11.43
2022-12-12T09:43:41.520Z,10.30
2022-12-12T09:46:15.339Z,12.10
2022-12-12T09:48:44.296Z,14.43
2022-12-12T09:51:12.161Z,11.90
2022-12-12T09:53:41.292Z,13.23
2022-12-12T09:56:11.742Z,10.40
2022-12-12T09:58:47.468Z,9.80
2022-12-12T10:01:22.419Z,9.87
2022-12-12T10:03:55.090Z,11.40
2022-12-12T10:06:39.137Z,13.47
2022-12-12T10:09:11.331Z,12.53
2022-12-12T10:11:55.153Z,9.90
2022-12-12T10:14:27.501Z,8.40
2022-12-12T10:16:58.543Z,12.47
2022-12-12T10:19:28.285Z,11.73
2022-12-12T10:21:59.494Z,9.30
2022-12-12T10:24:30.205Z,9.03
2022-12-12T10:26:59.170Z,7.40
2022-12-12T10:29:27.423Z,10.50
2022-12-12T10:32:01.467Z,10.53
2022-12-12T10:34:37.130Z,12.47
2022-12-12T10:37:15.042Z,8.30
2022-12-12T10:39:47.070Z,7.30
2022-12-12T10:42:18.462Z,13.33
2022-12-12T10:45:00.730Z,8.40
2022-12-12T10:47:30.999Z,9.47
2022-12-12T10:50:02.916Z,9.70
2022-12-12T10:52:31.128Z,7.43
2022-12-12T10:55:00.041Z,10.17
2022-12-12T10:57:29.102Z,10.20
2022-12-12T10:59:57.822Z,9.67
2022-12-12T11:02:39.256Z,7.70
2022-12-12T11:05:10.923Z,7.03
2022-12-12T11:07:40.616Z,6.90
2022-12-12T11:10:30.590Z,6.80
2022-12-12T11:13:02.735Z,6.50
2022-12-12T11:15:32.734Z,7.50
2022-12-12T11:18:06.086Z,5.80
2022-12-12T11:20:34.870Z,7.57
2022-12-12T11:23:02.602Z,10.07
2022-12-12T11:25:31.940Z,9.37
2022-12-12T11:28:06.641Z,9.47
2022-12-12T11:30:36.020Z,9.93
2022-12-12T11:33:06.594Z,14.43
2022-12-12T11:35:35.559Z,12.30
2022-12-12T11:38:05.091Z,11.33
2022-12-12T11:40:34.224Z,11.77
2022-12-12T11:43:09.053Z,11.30
2022-12-12T11:45:37.591Z,12.40
2022-12-12T11:48:30.160Z,14.73
2022-12-12T11:50:58.713Z,31.33
2022-12-12T11:53:26.642Z,10.80
2022-12-12T11:55:59.001Z,8.60
2022-12-12T11:58:28.893Z,22.97
2022-12-12T12:00:58.486Z,11.47
2022-12-12T12:03:36.063Z,11.97
2022-12-12T12:06:31.018Z,10.90
2022-12-12T12:09:20.042Z,10.77
2022-12-12T12:11:53.203Z,10.63
2022-12-12T12:14:31.391Z,12.53
2022-12-12T12:17:03.524Z,12.50
2022-12-12T12:19:37.694Z,15.00
2022-12-12T12:22:11.578Z,14.33
2022-12-12T12:25:00.210Z,17.30
2022-12-12T12:27:32.384Z,12.40
2022-12-12T12:30:18.714Z,14.60
2022-12-12T12:32:54.662Z,13.47
2022-12-12T12:35:30.422Z,13.83
2022-12-12T12:38:06.090Z,13.70
2022-12-12T12:40:42.051Z,11.20
2022-12-12T12:43:17.296Z,12.00
2022-12-12T12:45:46.439Z,8.70
2022-12-12T12:48:17.543Z,10.10
2022-12-12T12:50:48.237Z,9.37
2022-12-12T12:53:23.382Z,10.30
2022-12-12T12:55:52.647Z,7.30
2022-12-12T12:58:22.946Z,7.97
2022-12-12T13:00:54.077Z,11.87
2022-12-12T13:03:25.432Z,8.67
2022-12-12T13:05:59.043Z,6.90
2022-12-12T13:08:30.675Z,8.30
2022-12-12T13:11:00.932Z,7.20
2022-12-12T13:13:30.551Z,8.60
2022-12-12T13:16:02.360Z,7.57
2022-12-12T13:18:44.457Z,7.03
2022-12-12T13:21:17.757Z,11.63
2022-12-12T13:23:50.619Z,9.83
2022-12-12T13:26:22.393Z,7.53
2022-12-12T13:28:52.599Z,7.17
2022-12-12T13:31:27.137Z,6.73
2022-12-12T13:33:57.280Z,7.00
2022-12-12T13:36:30.583Z,9.27
2022-12-12T13:38:59.278Z,8.03
2022-12-12T13:41:27.065Z,8.77
2022-12-12T13:43:57.799Z,9.77
2022-12-12T13:46:39.654Z,8.97
2022-12-12T13:49:25.641Z,7.97
2022-12-12T13:52:14.656Z,8.43
2022-12-12T13:54:46.684Z,9.50
2022-12-12T13:57:31.389Z,9.93
2022-12-12T14:00:30.070Z,8.83
2022-12-12T14:03:01.768Z,9.07
2022-12-12T14:05:31.537Z,10.27
2022-12-12T14:08:03.218Z,7.97
2022-12-12T14:10:33.859Z,7.90
2022-12-12T14:13:18.248Z,7.30
2022-12-12T14:15:47.763Z,7.90
2022-12-12T14:18:19.907Z,8.30
2022-12-12T14:20:55.137Z,10.03
2022-12-12T14:23:26.287Z,9.87
2022-12-12T14:25:54.942Z,12.57
2022-12-12T14:28:24.237Z,13.70
2022-12-12T14:30:56.345Z,12.90
2022-12-12T14:33:47.745Z,14.10
2022-12-12T14:36:26.784Z,12.23
2022-12-12T14:39:02.997Z,14.67
2022-12-12T14:41:33.673Z,14.63
2022-12-12T14:44:35.303Z,11.93
2022-12-12T14:46:51.465Z,13.00
2022-12-12T14:49:19.676Z,14.20
2022-12-12T14:51:49.526Z,15.27
2022-12-12T14:54:19.751Z,13.90
2022-12-12T14:56:52.718Z,13.33
2022-12-12T14:59:22.756Z,16.40
2022-12-12T15:01:51.964Z,18.47
2022-12-12T15:04:22.333Z,14.30
2022-12-12T15:06:51.328Z,16.27
2022-12-12T15:09:29.517Z,14.80
2022-12-12T15:12:06.302Z,15.40
2022-12-12T15:14:34.316Z,13.27
2022-12-12T15:17:03.741Z,12.17
2022-12-12T15:19:36.714Z,12.17
2022-12-12T15:22:04.770Z,13.10
2022-12-12T15:24:39.097Z,13.50
2022-12-12T15:27:09.885Z,11.23
2022-12-12T15:29:39.220Z,13.77
2022-12-12T15:32:09.211Z,11.03
2022-12-12T15:34:41.182Z,13.10
2022-12-12T15:37:13.689Z,13.07
2022-12-12T15:39:42.699Z,12.10
2022-12-12T15:42:10.891Z,13.03
2022-12-12T15:44:39.055Z,13.43
2022-12-12T15:47:06.912Z,11.50
2022-12-12T15:49:39.376Z,13.17
2022-12-12T15:52:11.943Z,18.13
2022-12-12T15:54:47.034Z,13.00
2022-12-12T15:57:16.042Z,13.53
2022-12-12T15:59:47.463Z,12.77
2022-12-12T16:02:26.255Z,14.40
2022-12-12T16:04:54.990Z,14.87
2022-12-12T16:07:23.427Z,12.37
2022-12-12T16:10:00.155Z,13.47
2022-12-12T16:12:46.309Z,13.53
2022-12-12T16:15:21.414Z,12.93
2022-12-12T16:17:59.147Z,12.67
2022-12-12T16:20:30.561Z,15.53
2022-12-12T16:23:09.845Z,14.13
2022-12-12T16:25:39.573Z,13.17
2022-12-12T16:28:20.211Z,12.73
2022-12-12T16:30:53.192Z,15.67
2022-12-12T16:33:24.872Z,13.90
2022-12-12T16:35:52.936Z,14.77
2022-12-12T16:38:21.435Z,14.40
2022-12-12T16:40:51.199Z,13.17
2022-12-12T16:43:21.090Z,15.00
2022-12-12T16:45:49.942Z,12.93
2022-12-12T16:48:18.792Z,12.60
2022-12-12T16:50:47.573Z,11.10
2022-12-12T16:53:15.275Z,13.83
2022-12-12T16:55:44.703Z,14.30
2022-12-12T16:58:14.086Z,12.70
2022-12-12T17:00:42.112Z,12.70
2022-12-12T17:03:11.903Z,12.53
2022-12-12T17:05:39.838Z,11.53
2022-12-12T17:08:07.763Z,12.20
2022-12-12T17:10:36.902Z,12.43
2022-12-12T17:13:05.490Z,11.03
2022-12-12T17:15:35.190Z,12.40
2022-12-12T17:18:02.838Z,11.77
2022-12-12T17:20:37.820Z,13.07
2022-12-12T17:25:54.674Z,13.33
2022-12-12T17:28:26.858Z,12.27
2022-12-12T17:30:56.011Z,13.73
2022-12-12T17:33:23.842Z,14.13
2022-12-12T17:35:58.154Z,12.17
2022-12-12T17:38:26.031Z,12.83
2022-12-12T17:40:56.811Z,11.53
2022-12-12T17:43:25.406Z,11.93
2022-12-12T17:46:01.761Z,11.60
2022-12-12T17:48:30.961Z,12.03
2022-12-12T17:51:00.161Z,11.40
2022-12-12T17:53:32.517Z,10.87
2022-12-12T17:56:01.618Z,10.07
2022-12-12T17:58:36.241Z,9.23
2022-12-12T18:01:11.348Z,10.43
2022-12-12T18:03:39.370Z,9.93
2022-12-12T18:06:07.453Z,9.17
2022-12-12T18:08:35.438Z,7.90
2022-12-12T18:11:06.301Z,9.07
2022-12-12T18:13:34.284Z,10.23
2022-12-12T18:16:01.903Z,9.03
2022-12-12T18:18:33.254Z,9.73
2022-12-12T18:21:04.775Z,12.90
2022-12-12T18:23:32.873Z,7.93
2022-12-12T18:26:06.535Z,12.07
2022-12-12T18:28:34.933Z,9.93
2022-12-12T18:31:02.689Z,9.17
2022-12-12T18:33:32.373Z,8.80
2022-12-12T18:36:00.805Z,9.57
2022-12-12T18:38:28.515Z,8.77
2022-12-12T18:40:56.527Z,8.67
2022-12-12T18:43:25.563Z,9.13
2022-12-12T18:45:53.269Z,9.63
2022-12-12T18:48:21.320Z,7.57
2022-12-12T18:50:50.451Z,8.77
2022-12-12T18:53:18.146Z,7.93
2022-12-12T18:55:47.511Z,8.43
2022-12-12T18:58:15.164Z,10.57
2022-12-12T19:00:43.038Z,9.60
2022-12-12T19:03:10.843Z,9.17
2022-12-12T19:05:40.983Z,13.43
2022-12-12T19:08:10.407Z,9.50
2022-12-12T19:10:38.769Z,11.00
2022-12-12T19:13:06.669Z,12.83
2022-12-12T19:15:35.581Z,12.00
2022-12-12T19:18:03.902Z,10.33
2022-12-12T19:20:31.557Z,9.97
2022-12-12T19:22:59.549Z,13.30
2022-12-12T19:25:28.819Z,11.70
2022-12-12T19:27:56.541Z,10.83
2022-12-12T19:30:26.807Z,10.80
2022-12-12T19:32:56.450Z,9.47
2022-12-12T19:35:24.770Z,11.17
2022-12-12T19:37:52.683Z,12.47
2022-12-12T19:40:20.574Z,13.90
2022-12-12T19:42:49.571Z,10.10
2022-12-12T19:45:17.791Z,9.43
2022-12-12T19:47:45.565Z,11.03
2022-12-12T19:50:16.895Z,12.40
2022-12-12T19:52:44.839Z,13.70
2022-12-12T19:55:12.709Z,11.27
2022-12-12T19:57:40.643Z,9.40
2022-12-12T20:00:11.797Z,11.00
2022-12-12T20:02:39.616Z,13.13
2022-12-12T20:05:07.690Z,8.70
2022-12-12T20:07:35.568Z,9.90
2022-12-12T20:10:03.352Z,8.70
2022-12-12T20:12:31.216Z,6.90
2022-12-12T20:14:59.137Z,8.07
2022-12-12T20:17:28.480Z,6.37
2022-12-12T20:19:56.261Z,6.10
2022-12-12T20:22:24.100Z,9.57
2022-12-12T20:24:51.929Z,7.93
2022-12-12T20:27:20.033Z,10.53
2022-12-12T20:29:47.811Z,10.07
2022-12-12T20:32:18.778Z,9.87
2022-12-12T20:34:48.129Z,15.50
2022-12-12T20:37:20.004Z,15.80
2022-12-12T20:39:48.304Z,9.93
2022-12-12T20:42:15.987Z,13.97
2022-12-12T20:44:43.678Z,12.87
2022-12-12T20:47:14.442Z,13.23
2022-12-12T20:49:43.389Z,15.40
2022-12-12T20:52:12.689Z,16.50
2022-12-12T20:54:40.692Z,14.00
2022-12-12T20:57:08.423Z,20.10
2022-12-12T20:59:36.306Z,19.20
2022-12-12T21:02:04.271Z,22.40
2022-12-12T21:04:32.656Z,24.87
2022-12-12T21:07:00.263Z,26.83
2022-12-12T21:09:29.388Z,22.00
2022-12-12T21:11:58.240Z,27.40
2022-12-12T21:14:26.574Z,30.73
2022-12-12T21:16:54.624Z,29.97
2022-12-12T21:19:23.187Z,29.00
2022-12-12T21:21:51.592Z,28.60
2022-12-12T21:24:22.910Z,27.13
2022-12-12T21:26:52.056Z,26.80
2022-12-12T21:29:20.111Z,27.53
2022-12-12T21:31:51.943Z,28.20
2022-12-12T21:34:20.884Z,30.87
2022-12-12T21:36:50.885Z,31.43
2022-12-12T21:39:19.030Z,30.17
2022-12-12T21:41:47.262Z,30.53
2022-12-12T21:44:16.237Z,27.63
2022-12-12T21:46:44.225Z,34.10
2022-12-12T21:49:27.003Z,36.13
2022-12-12T21:51:56.096Z,25.23
2022-12-12T21:54:23.829Z,17.67
2022-12-12T21:56:53.017Z,19.00
2022-12-12T21:59:21.988Z,23.93
2022-12-12T22:01:49.976Z,28.37
2022-12-12T22:04:17.780Z,17.90
2022-12-12T22:06:46.017Z,41.50
2022-12-12T22:09:13.964Z,20.33
2022-12-12T22:11:49.267Z,17.93
2022-12-12T22:14:19.770Z,20.70
2022-12-12T22:16:48.800Z,14.33
2022-12-12T22:19:17.116Z,16.27
2022-12-12T22:21:45.695Z,14.83
2022-12-12T22:24:13.697Z,14.50
2022-12-12T22:26:44.568Z,17.63
2022-12-12T22:29:14.199Z,22.43
2022-12-12T22:31:42.152Z,16.40
2022-12-12T22:34:13.383Z,13.77
2022-12-12T22:36:41.591Z,18.20
2022-12-12T22:39:12.181Z,13.77
2022-12-12T22:41:39.901Z,13.77
2022-12-12T22:44:07.900Z,23.47
2022-12-12T22:46:40.607Z,26.33
2022-12-12T22:49:13.285Z,16.30
2022-12-12T22:51:41.309Z,15.43
2022-12-12T22:54:08.972Z,15.60
2022-12-12T22:56:38.025Z,23.93
2022-12-12T22:59:06.126Z,19.27
2022-12-12T23:01:33.941Z,18.47
2022-12-12T23:04:01.625Z,34.87
2022-12-12T23:06:31.463Z,25.17
2022-12-12T23:08:59.888Z,18.00
2022-12-12T23:11:28.249Z,29.00
2022-12-12T23:13:56.732Z,28.80
2022-12-12T23:16:25.179Z,22.87
2022-12-12T23:18:54.319Z,14.10
2022-12-12T23:21:22.845Z,19.47
2022-12-12T23:23:52.449Z,14.57
2022-12-12T23:26:21.445Z,16.80
2022-12-12T23:28:49.416Z,21.17
2022-12-12T23:31:20.011Z,29.20
2022-12-12T23:33:47.804Z,27.30
2022-12-12T23:36:16.360Z,20.07
2022-12-12T23:38:44.794Z,29.13
2022-12-12T23:41:15.254Z,26.13
2022-12-12T23:43:44.555Z,18.70
2022-12-12T23:46:27.987Z,20.73
2022-12-12T23:48:56.537Z,25.00
2022-12-12T23:51:24.661Z,23.60
2022-12-12T23:53:52.629Z,17.00
2022-12-12T23:56:22.133Z,18.97
2022-12-12T23:58:50.098Z,35.47
